ADDS METAR Data INFO
IDs: Format: Raw Decoded Include TAF

Data at: 0308 UTC 16 Aug 2018

PAIL 160253Z 19006KT 10SM FEW040 BKN055 15/09 A2993 RMK AO2 SLP138 T01500094 56008
PAIL 160153Z 22004KT 10SM FEW037 16/07 A2993 RMK AO2 SLP138 T01560072
PAIL 160053Z 26007KT 10SM OVC065 14/08 A2994 RMK AO2 SLP141 T01440078
PAIL 152353Z 22005KT 10SM SCT050 OVC060 13/08 A2996 RMK AO2 SLP146 T01330078 10161 20111 53001
PAIL 152253Z 18007KT 10SM FEW043 OVC050 13/07 A2996 RMK AO2 SLP147 T01330072
PAIL 152153Z 20005KT 10SM BKN041 OVC049 14/06 A2995 RMK AO2 SLP144 T01440061
PAIL 152053Z 25007KT 10SM SCT038 15/06 A2996 RMK AO2 SLP144 T01500061 58003
PAIL 151953Z 22006KT 10SM FEW035 14/07 A2996 RMK AO2 SLP147 T01390067
PAIL 151853Z 24008KT 10SM CLR 12/07 A2997 RMK AO2 SLP150 T01220072
PAIL 151753Z 23006KT 10SM CLR 12/08 A2996 RMK AO2 SLP148 T01170078 10117 20056 51002
PAIL 151653Z 25005KT 10SM FEW002 08/07 A2996 RMK AO2 SLP149 T00830072
PAIL 151553Z 29004KT 10SM CLR 07/06 A2996 RMK AO2 SLP148 T00670061
PAIL 151512Z 27005KT 6SM BR SCT003 06/06 A2996 RMK AO2 T00560056
PAIL 151509Z 27006KT 3SM BR SCT003 06/06 A2996 RMK AO2 T00610056
PAIL 151453Z 28006KT 10SM CLR 06/06 A2996 RMK AO2 SLP146 T00610061 56001
PAIL 151353Z 27005KT 10SM CLR 07/06 A2996 RMK AO2 SLP147 T00670061
PAIL 151253Z AUTO 24005KT 10SM FEW060 08/07 A2996 RMK AO2 SLP147 T00780072 TSNO
PAIL 151153Z AUTO 25006KT 10SM OVC050 09/08 A2996 RMK AO2 SLP148 70004 T00890078 10111 20089 50000 TSNO
PAIL 151053Z AUTO 25006KT 10SM OVC048 09/08 A2997 RMK AO2 SLP149 T00940083 TSNO
PAIL 151032Z AUTO 26007KT 10SM SCT021 OVC048 09/08 A2997 RMK AO2 T00940083 TSNO
PAIL 150953Z AUTO 25009KT 10SM SCT016 OVC020 10/08 A2997 RMK AO2 SLP149 T01000083 TSNO
PAIL 150936Z AUTO 24007KT 10SM BKN016 BKN022 OVC060 10/08 A2997 RMK AO2 T01000083 TSNO
PAIL 150911Z AUTO 25007KT 10SM FEW017 SCT024 OVC060 10/08 A2997 RMK AO2 T01000083 TSNO
PAIL 150853Z AUTO 24008KT 10SM FEW016 OVC025 10/08 A2996 RMK AO2 SLP148 T01000083 401440100 51009 TSNO
PAIL 150831Z AUTO 24008KT 10SM SCT015 BKN023 OVC065 10/08 A2996 RMK AO2 T01000078 TSNO
PAIL 150753Z AUTO 24010KT 10SM FEW024 BKN065 10/08 A2995 RMK AO2 SLP145 T01000078 TSNO
PAIL 150653Z AUTO 24011KT 10SM BKN065 11/08 A2995 RMK AO2 SLP143 T01060083 TSNO
PAIL 150553Z AUTO 23012G19KT 10SM SCT060 11/08 A2994 RMK AO2 SLP139 T01110083 10144 20111 53007 TSNO
PAIL 150453Z 23016G24KT 10SM FEW060 12/08 A2993 RMK AO2 SLP136 T01170083
PAIL 150353Z 23011G21KT 10SM BKN060 13/08 A2992 RMK AO2 SLP133 T01280083
PAIL 150253Z 23013KT 10SM OVC060 13/07 A2991 RMK AO2 SLP131 T01330072 53002
PAIL 150153Z 23012G20KT 10SM BKN050 OVC065 13/08 A2992 RMK AO2 SLP132 T01330078
PAIL 150053Z 23015G27KT 10SM CLR 14/08 A2990 RMK AO2 PK WND 24027/0002 SLP127 T01440078
PAIL 142353Z 23012G24KT 10SM OVC047 14/08 A2991 RMK AO2 SLP129 60003 T01440078 10144 20100 51007
PAIL 142253Z 22014G24KT 10SM OVC049 13/08 A2991 RMK AO2 SLP130 T01330083
PAIL 142153Z 24013G22KT 10SM OVC049 13/09 A2990 RMK AO2 SLP127 T01280089
PAIL 142053Z 23012G19KT 10SM FEW024 SCT033 OVC055 12/09 A2989 RMK AO2 SLP123 60003 T01220089 51018
PAIL 141953Z 25012G18KT 10SM FEW024 SCT050 OVC070 11/09 A2987 RMK AO2 RAE25 SLP116 P0001 T01110094
PAIL 141853Z 24012KT 10SM -RA BKN015 OVC020 10/09 A2986 RMK AO2 SLP112 P0002 T01000094
PAIL 141753Z 24009G20KT 10SM -RA OVC012 11/09 A2983 RMK AO2 RAE18B35 SLP104 P0000 60001 T01060094 10106 20100 53020
PAIL 141653Z 25012G18KT 10SM -RA OVC012 11/09 A2982 RMK AO2 SLP098 P0000 T01060094
PAIL 141553Z 24009G20KT 10SM -RA OVC011 10/09 A2979 RMK AO2 RAB05 SLP091 P0000 T01000094